Time;durP1;ratioP1;P1;durP2;ratioP2;P2;SDS_P1;SDS_P2;PMS_P1;PMS_P2;Temp;Humidity;BMP_temperature;BMP_pressure;BME280_temperature;BME280_humidity;BME280_pressure;Samples;Min_cycle;Max_cycle;Signal;HPM_P1;HPM_P2
2022/06/07 00:01:21;;;;;;;;;;;;;;;21.40;74.88;99629.53;5034217;28;19928;-38
2022/06/07 00:03:47;;;;;;;;;;;;;;;21.34;74.90;99624.41;5033802;28;19913;-37
2022/06/07 00:06:12;;;;;;;;;;;;;;;21.37;75.62;99627.38;5034160;28;19932;-37
2022/06/07 00:08:37;;;;;;;;;;;;;;;21.32;75.31;99626.56;5034219;28;19927;-37
2022/06/07 00:11:03;;;;;;;;;;;;;;;21.25;74.71;99632.31;5034151;28;19913;-37
2022/06/07 00:13:28;;;;;;;;;;;;;;;21.95;72.31;99628.69;5033857;28;19913;-38
2022/06/07 00:15:53;;;;;;;;;;;;;;;22.39;69.46;99625.13;5033997;28;20015;-38
2022/06/07 00:18:19;;;;;;;;;;;;;;;21.71;71.99;99621.25;5033860;28;19909;-37
2022/06/07 00:20:44;;;;;;;;;;;;;;;21.22;73.83;99627.44;5035780;28;19991;-37
2022/06/07 00:23:11;;;;;;;;;;;;;;;20.97;73.85;99599.38;5053563;28;20270;-37
2022/06/07 00:25:37;;;;;;;;;;;;;;;21.15;74.24;99624.22;5053461;28;20281;-37
2022/06/07 00:28:02;;;;;;;;;;;;;;;20.98;74.02;99628.06;5053704;28;20003;-37
2022/06/07 00:30:28;;;;;;;;;;;;;;;20.98;74.66;99621.81;5053566;28;20266;-37
2022/06/07 00:32:54;;;;;;;;;;;;;;;21.35;72.79;99618.72;5053379;28;19924;-37
2022/06/07 00:35:19;;;;;;;;;;;;;;;22.02;70.18;99612.94;5052983;28;19913;-37
2022/06/07 00:37:45;;;;;;;;;;;;;;;22.31;69.23;99609.47;5053481;28;19951;-37
2022/06/07 00:40:10;;;;;;;;;;;;;;;21.52;72.74;99606.75;5053390;28;20317;-37
2022/06/07 00:42:36;;;;;;;;;;;;;;;21.05;74.80;99615.03;5053306;28;19909;-37
2022/06/07 00:45:01;;;;;;;;;;;;;;;20.99;75.30;99618.84;5052992;28;20341;-37
2022/06/07 00:47:28;;;;;;;;;;;;;;;21.02;76.24;99626.44;5053008;28;20383;-37
2022/06/07 00:49:56;;;;;;;;;;;;;;;20.90;76.73;99625.91;5053119;28;20337;-38
2022/06/07 00:52:23;;;;;;;;;;;;;;;21.04;75.18;99628.88;5053117;28;19940;-37
2022/06/07 00:54:49;;;;;;;;;;;;;;;21.13;72.18;99629.09;5052944;28;19917;-37
2022/06/07 00:57:14;;;;;;;;;;;;;;;21.85;67.76;99618.72;5052428;28;19913;-38
2022/06/07 00:59:39;;;;;;;;;;;;;;;22.37;65.93;99617.28;5052955;28;19909;-38
2022/06/07 01:02:05;;;;;;;;;;;;;;;21.64;69.24;99618.84;5051740;28;19936;-38
2022/06/07 01:04:31;;;;;;;;;;;;;;;21.22;69.42;99619.31;5052865;28;19908;-38
2022/06/07 01:12:25;;;;;;;;;;;;;;;20.82;70.34;99611.06;5053056;28;19915;-37
2022/06/07 01:14:50;;;;;;;;;;;;;;;20.88;69.39;99601.03;5052972;28;19996;-37
2022/06/07 01:17:16;;;;;;;;;;;;;;;21.35;67.41;99601.69;5052508;28;19908;-37
2022/06/07 01:19:41;;;;;;;;;;;;;;;21.72;65.83;99603.13;5052580;28;19913;-37
2022/06/07 01:22:06;;;;;;;;;;;;;;;21.55;65.17;99604.31;5039000;28;19917;-38
2022/06/07 01:24:32;;;;;;;;;;;;;;;20.91;66.99;99602.41;5032622;28;20297;-37
2022/06/07 01:26:57;;;;;;;;;;;;;;;20.84;67.40;99605.38;5032546;28;19913;-37
2022/06/07 01:29:22;;;;;;;;;;;;;;;20.54;68.23;99609.72;5032396;28;19916;-38
2022/06/07 01:31:48;;;;;;;;;;;;;;;20.64;67.73;99598.94;5032545;28;20289;-37
2022/06/07 01:34:13;;;;;;;;;;;;;;;20.67;67.28;99601.06;5032464;28;19920;-36
2022/06/07 01:36:39;;;;;;;;;;;;;;;20.31;68.63;99601.13;5032588;28;19916;-39
2022/06/07 01:41:54;;;;;;;;;;;;;;;21.16;64.92;99583.34;5032768;28;19920;-37
2022/06/07 01:44:22;;;;;;;;;;;;;;;21.31;64.57;99606.84;5032391;28;20007;-38
2022/06/07 01:46:47;;;;;;;;;;;;;;;20.82;66.20;99608.34;5032306;28;19921;-38
2022/06/07 01:49:13;;;;;;;;;;;;;;;20.47;67.67;99620.03;5031752;28;19909;-38
2022/06/07 01:51:38;;;;;;;;;;;;;;;20.41;67.31;99615.69;5032316;28;19917;-38
2022/06/07 01:54:04;;;;;;;;;;;;;;;20.64;66.53;99615.16;5032002;28;19971;-38
2022/06/07 01:56:29;;;;;;;;;;;;;;;20.34;67.98;99620.56;5031474;28;19909;-38
2022/06/07 01:58:57;;;;;;;;;;;;;;;20.67;66.68;99616.50;5045443;28;19944;-38
2022/06/07 02:01:22;;;;;;;;;;;;;;;20.93;66.14;99609.13;5051013;28;19915;-38
2022/06/07 02:03:48;;;;;;;;;;;;;;;21.43;63.98;99612.72;5051871;28;19912;-38
2022/06/07 02:06:13;;;;;;;;;;;;;;;21.25;64.91;99619.56;5050232;28;19930;-35
2022/06/07 02:08:41;;;;;;;;;;;;;;;20.70;67.48;99622.16;5051898;28;19916;-37
2022/06/07 02:11:12;;;;;;;;;;;;;;;20.38;68.64;99633.25;5051690;28;19924;-37
2022/06/07 02:13:38;;;;;;;;;;;;;;;20.47;68.47;99628.94;5051124;28;19955;-37
2022/06/07 02:16:03;;;;;;;;;;;;;;;20.46;68.80;99631.91;5051603;28;19916;-37
2022/06/07 02:18:29;;;;;;;;;;;;;;;20.58;67.88;99632.44;5051829;28;19970;-37
2022/06/07 02:20:56;;;;;;;;;;;;;;;20.60;69.69;99640.28;5047920;28;20401;-38
2022/06/07 02:23:22;;;;;;;;;;;;;;;21.10;68.79;99638.56;5031340;28;19909;-38
2022/06/07 02:25:50;;;;;;;;;;;;;;;21.45;66.65;99629.50;5031390;28;20410;-38
2022/06/07 02:28:16;;;;;;;;;;;;;;;21.42;66.92;99631.97;5031443;28;20369;-38
2022/06/07 02:30:42;;;;;;;;;;;;;;;20.79;68.76;99630.53;5031257;28;19916;-37
2022/06/07 02:33:08;;;;;;;;;;;;;;;20.53;68.98;99642.44;5031032;28;20430;-37
2022/06/07 02:35:34;;;;;;;;;;;;;;;20.64;69.57;99642.19;5031292;28;19952;-38
2022/06/07 02:38:00;;;;;;;;;;;;;;;20.36;71.95;99648.94;5031472;28;19932;-38
2022/06/07 02:40:25;;;;;;;;;;;;;;;20.54;70.81;99649.47;5031402;28;19960;-37
2022/06/07 02:42:50;;;;;;;;;;;;;;;20.42;69.43;99649.75;5031364;28;20335;-38
2022/06/07 02:45:15;;;;;;;;;;;;;;;20.48;69.24;99654.88;5030978;28;19936;-38
2022/06/07 02:47:41;;;;;;;;;;;;;;;21.18;66.94;99646.13;5031024;28;19909;-38
2022/06/07 02:50:06;;;;;;;;;;;;;;;21.43;66.27;99644.38;5031122;28;19959;-37
2022/06/07 02:52:32;;;;;;;;;;;;;;;20.43;70.63;99656.78;5031410;28;19920;-37
2022/06/07 02:54:58;;;;;;;;;;;;;;;20.19;73.89;99646.50;5031102;28;19921;-38
2022/06/07 02:57:23;;;;;;;;;;;;;;;20.25;74.94;99656.22;5030819;28;19979;-38
2022/06/07 02:59:48;;;;;;;;;;;;;;;20.34;75.02;99661.09;5030947;28;19916;-37
2022/06/07 03:02:14;;;;;;;;;;;;;;;20.32;73.90;99661.38;5031129;28;20277;-37
2022/06/07 03:04:39;;;;;;;;;;;;;;;20.50;72.97;99665.41;5030761;28;19909;-37
2022/06/07 03:07:05;;;;;;;;;;;;;;;20.46;74.33;99667.84;5043965;28;20343;-36
2022/06/07 03:09:30;;;;;;;;;;;;;;;21.00;72.36;99660.22;5051122;28;19935;-37
2022/06/07 03:11:56;;;;;;;;;;;;;;;21.69;68.62;99649.72;5050920;28;20257;-37
2022/06/07 03:14:21;;;;;;;;;;;;;;;21.65;69.89;99650.28;5050656;28;19919;-37
2022/06/07 03:16:47;;;;;;;;;;;;;;;20.82;72.51;99656.22;5050729;28;20358;-37
2022/06/07 03:19:12;;;;;;;;;;;;;;;20.63;72.77;99656.78;5050648;28;19974;-37
2022/06/07 03:21:39;;;;;;;;;;;;;;;20.58;71.84;99662.19;5041165;28;19917;-37
2022/06/07 03:24:05;;;;;;;;;;;;;;;20.46;67.98;99656.22;5030803;28;20436;-38
2022/06/07 03:26:31;;;;;;;;;;;;;;;20.60;68.44;99670.03;5034497;28;19996;-38
2022/06/07 03:28:56;;;;;;;;;;;;;;;20.63;69.02;99667.59;5034812;28;19996;-37
2022/06/07 03:31:22;;;;;;;;;;;;;;;20.48;68.21;99664.88;5034539;28;19920;-37
2022/06/07 03:33:48;;;;;;;;;;;;;;;21.34;66.18;99667.69;5034675;28;19908;-38
2022/06/07 03:36:23;;;;;;;;;;;;;;;21.87;62.98;99668.00;5034557;28;19920;-47
2022/06/07 03:38:49;;;;;;;;;;;;;;;21.65;62.14;99665.72;5034784;28;19962;-44
2022/06/07 03:41:19;;;;;;;;;;;;;;;21.23;64.05;99664.25;5034741;28;20281;-49
2022/06/07 03:43:45;;;;;;;;;;;;;;;21.05;64.90;99662.94;5034492;28;19909;-48
2022/06/07 03:46:14;;;;;;;;;;;;;;;20.62;65.84;99666.00;5034520;28;19916;-46
2022/06/07 03:48:43;;;;;;;;;;;;;;;20.87;66.81;99669.75;5034445;28;20339;-47
2022/06/07 03:51:09;;;;;;;;;;;;;;;20.91;65.50;99667.31;5034731;28;19917;-48
2022/06/07 03:53:35;;;;;;;;;;;;;;;21.01;65.20;99664.56;5034135;28;19913;-47
2022/06/07 03:56:01;;;;;;;;;;;;;;;21.60;62.76;99673.84;5034343;28;19913;-47
2022/06/07 03:58:26;;;;;;;;;;;;;;;22.23;60.21;99671.28;5034028;28;20050;-48
2022/06/07 04:00:54;;;;;;;;;;;;;;;22.49;57.85;99665.72;5034145;28;19917;-50
2022/06/07 04:03:20;;;;;;;;;;;;;;;22.32;58.78;99662.59;5048806;28;19909;-47
2022/06/07 04:05:45;;;;;;;;;;;;;;;22.89;57.41;99669.13;5051628;28;20007;-50
2022/06/07 04:08:11;;;;;;;;;;;;;;;23.00;55.89;99673.34;5033135;28;19916;-49
2022/06/07 04:10:36;;;;;;;;;;;;;;;23.29;53.87;99666.28;5033574;28;19913;-50
2022/06/07 04:13:02;;;;;;;;;;;;;;;23.35;53.54;99667.84;5032514;28;20057;-50
2022/06/07 04:15:27;;;;;;;;;;;;;;;23.41;52.59;99672.09;5031438;28;20391;-49
2022/06/07 04:17:53;;;;;;;;;;;;;;;23.54;52.80;99671.38;5031252;28;20171;-48
2022/06/07 04:20:19;;;;;;;;;;;;;;;23.80;52.55;99674.63;5030689;28;20395;-48
2022/06/07 04:22:44;;;;;;;;;;;;;;;23.85;53.61;99675.63;5030922;28;20380;-51
2022/06/07 04:25:09;;;;;;;;;;;;;;;23.95;54.40;99676.31;5031311;28;20018;-48
2022/06/07 04:27:35;;;;;;;;;;;;;;;24.23;52.88;99676.41;5031377;28;19948;-50
2022/06/07 04:30:00;;;;;;;;;;;;;;;24.29;52.35;99683.38;5032074;28;19905;-48
2022/06/07 04:32:25;;;;;;;;;;;;;;;24.31;52.91;99681.22;5032601;28;19976;-48
2022/06/07 04:34:51;;;;;;;;;;;;;;;24.41;53.00;99685.66;5033377;28;19913;-50
2022/06/07 04:37:17;;;;;;;;;;;;;;;24.39;50.07;99679.72;5032995;28;19909;-48
2022/06/07 04:39:43;;;;;;;;;;;;;;;24.39;50.25;99690.59;5032888;28;20556;-47
2022/06/07 04:42:08;;;;;;;;;;;;;;;24.19;50.90;99678.13;5032897;28;19913;-48
2022/06/07 04:44:33;;;;;;;;;;;;;;;24.12;50.65;99685.84;5033531;28;19971;-47
2022/06/07 04:46:59;;;;;;;;;;;;;;;24.13;51.25;99695.63;5032945;28;19916;-49
2022/06/07 04:49:26;;;;;;;;;;;;;;;24.37;50.05;99688.16;5032734;28;19980;-48
2022/06/07 04:51:51;;;;;;;;;;;;;;;24.66;49.46;99695.34;5032680;28;19913;-49
2022/06/07 04:54:16;;;;;;;;;;;;;;;24.89;49.00;99695.50;5032842;28;19920;-46
2022/06/07 04:56:42;;;;;;;;;;;;;;;24.95;50.71;99692.38;5032987;28;20330;-48
2022/06/07 04:59:07;;;;;;;;;;;;;;;25.11;51.82;99700.25;5032563;28;20074;-47
2022/06/07 05:01:34;;;;;;;;;;;;;;;25.19;51.08;99707.72;5031850;28;19909;-47
2022/06/07 05:03:59;;;;;;;;;;;;;;;25.26;51.50;99707.34;5032526;28;19921;-47
2022/06/07 05:06:28;;;;;;;;;;;;;;;25.29;50.37;99710.28;5032790;28;19966;-50
2022/06/07 05:08:54;;;;;;;;;;;;;;;25.38;48.41;99720.44;5032559;28;20341;-47
2022/06/07 05:11:20;;;;;;;;;;;;;;;25.43;48.46;99718.44;5032007;28;20361;-50
2022/06/07 05:13:45;;;;;;;;;;;;;;;25.50;49.02;99726.22;5031973;28;19909;-47
2022/06/07 05:16:11;;;;;;;;;;;;;;;25.58;47.24;99725.50;5032073;28;19920;-50
2022/06/07 05:18:37;;;;;;;;;;;;;;;25.65;48.74;99720.44;5032077;28;20300;-50
2022/06/07 05:21:06;;;;;;;;;;;;;;;25.83;48.19;99710.50;5036663;28;19913;-51
2022/06/07 05:23:31;;;;;;;;;;;;;;;26.04;48.49;99719.06;5051288;28;20313;-50
2022/06/07 05:26:05;;;;;;;;;;;;;;;26.24;48.00;99726.00;5051212;28;20396;-47
2022/06/07 05:28:31;;;;;;;;;;;;;;;26.44;48.13;99721.16;5051445;28;19912;-48
2022/06/07 05:30:56;;;;;;;;;;;;;;;26.40;49.54;99723.69;5052409;28;19916;-50
2022/06/07 05:33:21;;;;;;;;;;;;;;;26.74;47.54;99722.38;5052060;28;19913;-49
2022/06/07 05:35:47;;;;;;;;;;;;;;;26.98;46.98;99723.94;5052016;28;19912;-50
2022/06/07 05:38:12;;;;;;;;;;;;;;;27.16;46.69;99728.34;5051734;28;20015;-48
2022/06/07 05:40:38;;;;;;;;;;;;;;;26.93;47.01;99727.59;5051753;28;19909;-52
2022/06/07 05:43:03;;;;;;;;;;;;;;;26.38;50.74;99727.88;5051264;28;19908;-50
2022/06/07 05:45:31;;;;;;;;;;;;;;;26.81;50.83;99724.66;5051677;28;19915;-49
2022/06/07 05:47:56;;;;;;;;;;;;;;;27.11;50.00;99728.50;5050619;28;19928;-50
2022/06/07 05:50:21;;;;;;;;;;;;;;;27.40;50.08;99725.28;5051502;28;19977;-50
2022/06/07 05:52:47;;;;;;;;;;;;;;;27.80;48.59;99719.75;5051137;28;19917;-50
2022/06/07 05:55:12;;;;;;;;;;;;;;;27.84;48.13;99717.19;5050969;28;19973;-48
2022/06/07 05:57:37;;;;;;;;;;;;;;;28.14;48.04;99711.91;5051203;28;19991;-47
2022/06/07 06:00:04;;;;;;;;;;;;;;;28.86;47.12;99718.59;5051441;28;19913;-50
2022/06/07 06:02:29;;;;;;;;;;;;;;;29.36;45.98;99711.66;5045614;28;20338;-47
2022/06/07 06:04:54;;;;;;;;;;;;;;;30.01;43.85;99707.56;5032591;28;19963;-50
2022/06/07 06:07:19;;;;;;;;;;;;;;;30.54;41.75;99696.97;5039612;28;19931;-50
2022/06/07 06:12:29;;;;;;;;;;;;;;;31.43;38.37;99711.28;5044750;28;19920;-50
2022/06/07 06:14:55;;;;;;;;;;;;;;;31.23;37.59;99705.56;5036537;28;19913;-49
2022/06/07 06:17:20;;;;;;;;;;;;;;;31.76;37.76;99703.72;5046201;28;19921;-47
2022/06/07 06:19:46;;;;;;;;;;;;;;;32.32;37.39;99702.19;5038905;28;20288;-48
2022/06/07 06:22:11;;;;;;;;;;;;;;;32.82;35.71;99705.50;5048124;28;19950;-50
2022/06/07 06:24:36;;;;;;;;;;;;;;;33.23;33.72;99706.16;5036408;28;19913;-51
2022/06/07 06:27:02;;;;;;;;;;;;;;;33.78;33.41;99709.81;5046969;28;19915;-48
2022/06/07 06:29:27;;;;;;;;;;;;;;;34.30;31.95;99701.44;5043199;28;20544;-50
2022/06/07 06:31:53;;;;;;;;;;;;;;;34.86;30.80;99692.59;5041453;28;19917;-49
2022/06/07 06:34:19;;;;;;;;;;;;;;;34.28;28.71;99694.31;5031039;28;19913;-52
2022/06/07 06:36:45;;;;;;;;;;;;;;;33.95;29.34;99694.00;5044577;28;20380;-51
2022/06/07 06:39:10;;;;;;;;;;;;;;;34.09;29.67;99699.81;5034091;28;19909;-51
2022/06/07 06:41:37;;;;;;;;;;;;;;;34.50;29.64;99694.72;5047683;28;20273;-51
2022/06/07 06:44:02;;;;;;;;;;;;;;;34.65;30.04;99695.78;5040062;28;19933;-51
2022/06/07 06:46:29;;;;;;;;;;;;;;;34.89;29.82;99694.66;5039704;28;20030;-51
2022/06/07 06:48:55;;;;;;;;;;;;;;;34.57;29.38;99705.91;5038230;28;19962;-52
2022/06/07 06:51:22;;;;;;;;;;;;;;;34.91;28.52;99697.84;5040775;28;19948;-52
2022/06/07 06:53:48;;;;;;;;;;;;;;;35.43;28.28;99693.56;5038903;28;19996;-52
2022/06/07 06:56:15;;;;;;;;;;;;;;;35.44;27.44;99694.34;5039713;28;20007;-51
2022/06/07 06:58:41;;;;;;;;;;;;;;;35.60;26.48;99700.53;5047560;28;19920;-51
2022/06/07 07:01:11;;;;;;;;;;;;;;;35.39;27.43;99695.47;5049691;28;19909;-52
2022/06/07 07:03:37;;;;;;;;;;;;;;;35.58;26.82;99691.00;5049486;28;19939;-50
2022/06/07 07:06:03;;;;;;;;;;;;;;;35.01;26.12;99688.13;5048264;28;19995;-52
2022/06/07 07:08:28;;;;;;;;;;;;;;;35.04;25.89;99682.66;5028834;28;20004;-50
2022/06/07 07:11:08;;;;;;;;;;;;;;;35.40;26.96;99679.69;5028142;28;19948;-50
2022/06/07 07:13:34;;;;;;;;;;;;;;;35.97;26.46;99685.22;5029535;28;19959;-52
2022/06/07 07:16:00;;;;;;;;;;;;;;;34.98;27.16;99681.38;5030091;28;19917;-51
2022/06/07 07:18:25;;;;;;;;;;;;;;;35.12;25.32;99678.03;5029625;28;19929;-49
2022/06/07 07:20:51;;;;;;;;;;;;;;;34.89;25.59;99677.28;5029384;28;19916;-51
2022/06/07 07:23:16;;;;;;;;;;;;;;;35.06;25.03;99682.28;5029856;28;19916;-51
2022/06/07 07:25:42;;;;;;;;;;;;;;;34.26;26.58;99685.59;5029721;28;19909;-50
2022/06/07 07:28:07;;;;;;;;;;;;;;;34.62;26.56;99674.41;5030184;28;20416;-51
2022/06/07 07:30:33;;;;;;;;;;;;;;;35.35;25.75;99669.72;5029840;28;19917;-51
2022/06/07 07:32:58;;;;;;;;;;;;;;;36.05;25.30;99673.03;5029401;28;19943;-51
2022/06/07 07:35:23;;;;;;;;;;;;;;;36.68;25.34;99663.06;5030136;28;20448;-51
2022/06/07 07:37:49;;;;;;;;;;;;;;;36.76;25.14;99663.91;5030175;28;19967;-52
2022/06/07 07:40:14;;;;;;;;;;;;;;;36.50;23.76;99659.28;5029985;28;19913;-49
2022/06/07 07:42:41;;;;;;;;;;;;;;;35.17;23.86;99657.59;5029366;28;19909;-51
2022/06/07 07:45:07;;;;;;;;;;;;;;;35.15;24.11;99655.19;5029792;28;19949;-50
2022/06/07 07:47:32;;;;;;;;;;;;;;;33.72;25.54;99653.34;5029904;28;20238;-52
2022/06/07 07:49:57;;;;;;;;;;;;;;;34.10;25.23;99660.03;5029655;28;19999;-51
2022/06/07 07:52:23;;;;;;;;;;;;;;;34.19;25.01;99652.31;5029329;28;19994;-52
2022/06/07 07:54:49;;;;;;;;;;;;;;;34.09;25.23;99653.69;5029707;28;20381;-49
2022/06/07 07:57:14;;;;;;;;;;;;;;;34.69;25.50;99643.38;5029787;28;19909;-48
2022/06/07 07:59:39;;;;;;;;;;;;;;;35.00;24.57;99645.09;5029228;28;19959;-49
2022/06/07 08:02:05;;;;;;;;;;;;;;;33.07;26.71;99640.00;5028951;28;19939;-52
2022/06/07 08:04:30;;;;;;;;;;;;;;;32.54;26.12;99637.50;5029685;28;19909;-48
2022/06/07 08:06:55;;;;;;;;;;;;;;;32.88;26.76;99637.97;5029327;28;20440;-49
2022/06/07 08:09:22;;;;;;;;;;;;;;;33.48;25.60;99627.56;5029709;28;19916;-52
2022/06/07 08:11:48;;;;;;;;;;;;;;;32.99;25.03;99638.22;5031842;28;19908;-48
2022/06/07 08:14:16;;;;;;;;;;;;;;;32.09;26.54;99628.44;5033289;28;19909;-49
2022/06/07 08:16:41;;;;;;;;;;;;;;;31.25;27.36;99633.78;5033424;28;19909;-51
2022/06/07 08:19:10;;;;;;;;;;;;;;;30.74;27.93;99634.88;5033217;28;19915;-49
2022/06/07 08:21:37;;;;;;;;;;;;;;;31.45;27.99;99632.81;5042202;28;20377;-48
2022/06/07 08:24:02;;;;;;;;;;;;;;;32.05;26.83;99621.25;5052746;28;19946;-49
2022/06/07 08:26:27;;;;;;;;;;;;;;;32.24;26.99;99626.09;5053308;28;19944;-52
2022/06/07 08:28:54;;;;;;;;;;;;;;;31.35;28.37;99633.31;5053426;28;20325;-49
2022/06/07 08:31:20;;;;;;;;;;;;;;;30.79;28.50;99623.66;5052391;28;20439;-48
2022/06/07 08:39:14;;;;;;;;;;;;;;;31.14;27.53;99611.44;5053008;28;20383;-49
2022/06/07 08:41:46;;;;;;;;;;;;;;;31.79;30.38;99610.66;5052327;28;19909;-51
2022/06/07 08:44:13;;;;;;;;;;;;;;;32.30;27.03;99603.44;5051690;28;19908;-49
2022/06/07 08:46:39;;;;;;;;;;;;;;;32.28;27.42;99610.47;5051813;28;19913;-51
2022/06/07 08:49:05;;;;;;;;;;;;;;;31.51;27.92;99603.16;5052314;28;19919;-50
2022/06/07 08:51:38;;;;;;;;;;;;;;;32.21;27.29;99596.50;5052677;28;20388;-49
2022/06/07 08:54:13;;;;;;;;;;;;;;;31.73;28.11;99605.38;5050868;28;19959;-50
2022/06/07 08:56:39;;;;;;;;;;;;;;;31.74;27.45;99589.72;5051623;28;19923;-50
2022/06/07 08:59:15;;;;;;;;;;;;;;;32.02;27.12;99589.72;5052157;28;19912;-50
2022/06/07 09:01:50;;;;;;;;;;;;;;;32.34;28.40;99601.56;5051051;28;19934;-52
2022/06/07 09:04:26;;;;;;;;;;;;;;;32.49;26.84;99591.72;5051854;28;20391;-47
2022/06/07 09:06:56;;;;;;;;;;;;;;;31.99;26.91;99584.91;5039658;28;19915;-49
2022/06/07 09:09:22;;;;;;;;;;;;;;;32.37;27.98;99580.00;5030675;28;20334;-50
2022/06/07 09:12:10;;;;;;;;;;;;;;;32.86;27.45;99576.91;5030643;28;19951;-51
2022/06/07 09:14:36;;;;;;;;;;;;;;;33.26;27.10;99576.69;5030430;28;19971;-49
2022/06/07 09:17:03;;;;;;;;;;;;;;;32.78;26.14;99577.91;5030607;28;20278;-52
2022/06/07 09:19:29;;;;;;;;;;;;;;;32.47;25.98;99583.03;5030754;28;20015;-50
2022/06/07 09:22:00;;;;;;;;;;;;;;;32.56;26.83;99579.28;5030381;28;19941;-51
2022/06/07 09:24:29;;;;;;;;;;;;;;;33.50;26.23;99578.38;5031476;28;20302;-53
2022/06/07 09:27:02;;;;;;;;;;;;;;;33.80;26.24;99564.03;5031801;28;19992;-53
2022/06/07 09:29:33;;;;;;;;;;;;;;;34.21;26.09;99566.38;5031392;28;19909;-50
2022/06/07 09:31:58;;;;;;;;;;;;;;;34.11;24.29;99556.72;5031640;28;19975;-51
2022/06/07 09:34:25;;;;;;;;;;;;;;;33.28;26.34;99566.09;5031175;28;20249;-51
2022/06/07 09:36:59;;;;;;;;;;;;;;;33.31;25.36;99559.84;5031978;28;19909;-51
2022/06/07 09:39:43;;;;;;;;;;;;;;;33.19;25.87;99562.75;5031228;28;19912;-50
2022/06/07 09:42:15;;;;;;;;;;;;;;;33.50;24.60;99559.06;5030863;28;19971;-51
2022/06/07 09:44:54;;;;;;;;;;;;;;;32.38;27.45;99559.59;5031648;28;19911;-50
2022/06/07 09:47:25;;;;;;;;;;;;;;;32.75;25.75;99553.81;5031027;28;19982;-50
2022/06/07 09:50:05;;;;;;;;;;;;;;;33.54;25.09;99541.78;5030751;28;19909;-51
2022/06/07 09:52:41;;;;;;;;;;;;;;;33.71;25.53;99538.63;5031066;28;19995;-51
2022/06/07 09:55:18;;;;;;;;;;;;;;;34.35;24.82;99533.50;5031040;28;19992;-51
2022/06/07 09:57:51;;;;;;;;;;;;;;;34.69;24.91;99536.44;5030861;28;19959;-50
2022/06/07 10:00:22;;;;;;;;;;;;;;;35.07;25.33;99533.81;5030914;28;19916;-51
2022/06/07 10:03:06;;;;;;;;;;;;;;;34.49;26.28;99532.13;5030707;28;20364;-49
2022/06/07 10:05:31;;;;;;;;;;;;;;;34.33;25.15;99524.78;5030803;28;20312;-50
2022/06/07 10:07:56;;;;;;;;;;;;;;;34.11;24.23;99529.09;5030753;28;19909;-51
2022/06/07 10:10:45;;;;;;;;;;;;;;;34.46;24.19;99504.09;5030481;28;19909;-51
2022/06/07 10:13:40;;;;;;;;;;;;;;;34.89;24.63;99500.41;5031139;28;20366;-52
2022/06/07 10:16:11;;;;;;;;;;;;;;;34.69;22.66;99500.53;5026018;28;19913;-50
2022/06/07 10:18:56;;;;;;;;;;;;;;;34.17;23.68;99497.28;5030659;28;19913;-52
2022/06/07 10:21:21;;;;;;;;;;;;;;;33.57;24.53;99483.16;5029863;28;19909;-37
2022/06/07 10:24:00;;;;;;;;;;;;;;;33.36;25.52;99489.84;5030332;28;19982;-38
2022/06/07 10:26:25;;;;;;;;;;;;;;;33.10;24.96;99485.75;5031312;28;20389;-36
2022/06/07 10:29:09;;;;;;;;;;;;;;;33.43;24.73;99470.66;5031023;28;19915;-38
2022/06/07 10:32:12;;;;;;;;;;;;;;;34.06;24.22;99476.97;5030574;28;19916;-38
2022/06/07 10:34:41;;;;;;;;;;;;;;;34.50;23.83;99468.25;4988695;28;20389;-37
2022/06/07 10:37:12;;;;;;;;;;;;;;;34.77;22.71;99471.03;4989100;28;19909;-37
2022/06/07 10:39:38;;;;;;;;;;;;;;;35.94;21.83;99461.75;5010155;28;19916;-37
2022/06/07 10:42:04;;;;;;;;;;;;;;;36.47;22.30;99471.69;5029952;28;19915;-37
2022/06/07 10:44:32;;;;;;;;;;;;;;;36.60;22.59;99462.66;5029622;28;20007;-36
2022/06/07 10:47:04;;;;;;;;;;;;;;;37.30;21.86;99461.84;5030262;28;19908;-38
2022/06/07 10:49:43;;;;;;;;;;;;;;;37.19;22.29;99452.72;5029851;28;19991;-37
2022/06/07 10:52:34;;;;;;;;;;;;;;;37.12;21.74;99458.97;5029757;28;19963;-37
2022/06/07 10:55:09;;;;;;;;;;;;;;;37.32;21.75;99457.50;5027573;28;19931;-37
2022/06/07 10:57:37;;;;;;;;;;;;;;;36.97;21.45;99447.03;5030238;28;19909;-38
2022/06/07 11:00:22;;;;;;;;;;;;;;;36.55;21.45;99451.16;5029901;28;19928;-38
2022/06/07 11:02:54;;;;;;;;;;;;;;;37.24;21.59;99442.00;5029233;28;19983;-37
2022/06/07 11:11:14;;;;;;;;;;;;;;;36.15;22.40;99428.69;5030581;28;19958;-37
2022/06/07 11:13:51;;;;;;;;;;;;;;;36.13;21.21;99419.19;5029991;28;19913;-38
2022/06/07 11:16:22;;;;;;;;;;;;;;;36.11;21.71;99421.53;5029694;28;19927;-37
2022/06/07 11:18:47;;;;;;;;;;;;;;;36.19;21.72;99414.91;5029742;28;20345;-38
2022/06/07 11:21:33;;;;;;;;;;;;;;;34.51;22.46;99398.00;5035563;28;19996;-37
2022/06/07 11:24:05;;;;;;;;;;;;;;;33.74;24.19;99401.91;5049434;28;19915;-37
2022/06/07 11:26:38;;;;;;;;;;;;;;;34.24;24.09;99398.03;5049613;28;19912;-38
2022/06/07 11:29:07;;;;;;;;;;;;;;;33.92;24.91;99396.69;5049539;28;19995;-36
2022/06/07 11:31:32;;;;;;;;;;;;;;;34.21;24.71;99387.72;5049185;28;19916;-38
2022/06/07 11:33:59;;;;;;;;;;;;;;;34.84;23.75;99394.53;5049466;28;20319;-38
2022/06/07 11:36:34;;;;;;;;;;;;;;;34.93;22.61;99393.44;5048839;28;19912;-37
2022/06/07 11:39:05;;;;;;;;;;;;;;;35.75;22.94;99397.13;5049892;28;19962;-37
2022/06/07 11:41:41;;;;;;;;;;;;;;;36.13;22.64;99389.50;5049662;28;19954;-38
2022/06/07 11:44:10;;;;;;;;;;;;;;;35.47;22.12;99386.59;5049927;28;19916;-38
2022/06/07 11:46:35;;;;;;;;;;;;;;;36.09;22.06;99388.69;5051585;28;19909;-38
2022/06/07 11:49:25;;;;;;;;;;;;;;;35.38;22.24;99383.31;5053394;28;20622;-38
2022/06/07 11:52:08;;;;;;;;;;;;;;;35.12;22.35;99378.66;5053676;28;19913;-38
2022/06/07 11:54:45;;;;;;;;;;;;;;;35.46;22.27;99373.91;5053568;28;19920;-37
2022/06/07 11:57:23;;;;;;;;;;;;;;;35.36;22.28;99371.84;5053281;28;19909;-38
2022/06/07 11:59:53;;;;;;;;;;;;;;;34.77;22.43;99366.03;5036903;28;19929;-38
2022/06/07 12:02:21;;;;;;;;;;;;;;;34.56;22.64;99359.03;5034029;28;19908;-42
2022/06/07 12:04:47;;;;;;;;;;;;;;;34.51;23.28;99362.09;5046284;28;19912;-37
2022/06/07 12:07:32;;;;;;;;;;;;;;;34.87;24.10;99353.50;5040038;28;19945;-39
2022/06/07 12:10:00;;;;;;;;;;;;;;;34.24;23.53;99362.13;5034249;28;19951;-39
2022/06/07 12:12:33;;;;;;;;;;;;;;;32.99;25.35;99352.44;5034244;28;19913;-38
2022/06/07 12:15:19;;;;;;;;;;;;;;;33.14;25.45;99352.75;5033925;28;20363;-36
2022/06/07 12:17:53;;;;;;;;;;;;;;;33.16;25.38;99350.44;5033337;28;19967;-37
2022/06/07 12:20:23;;;;;;;;;;;;;;;32.09;25.85;99347.75;5033272;28;19931;-37
2022/06/07 12:22:49;;;;;;;;;;;;;;;31.79;26.41;99347.41;5051047;28;20241;-37
2022/06/07 12:25:17;;;;;;;;;;;;;;;31.47;27.25;99346.59;5052687;28;20322;-37
2022/06/07 12:27:47;;;;;;;;;;;;;;;31.60;26.48;99344.56;5052824;28;19909;-40
2022/06/07 12:30:25;;;;;;;;;;;;;;;31.91;26.36;99346.50;5052359;28;19916;-39
2022/06/07 12:32:51;;;;;;;;;;;;;;;32.02;26.90;99349.53;5052123;28;19951;-39
2022/06/07 12:35:27;;;;;;;;;;;;;;;31.38;28.57;99357.75;5052816;28;20328;-38
2022/06/07 12:38:01;;;;;;;;;;;;;;;30.77;29.12;99347.81;5052665;28;20347;-39
2022/06/07 12:40:32;;;;;;;;;;;;;;;31.12;28.42;99344.47;5052298;28;20003;-38
2022/06/07 12:42:57;;;;;;;;;;;;;;;31.66;28.17;99340.41;5052559;28;19955;-39
2022/06/07 12:45:23;;;;;;;;;;;;;;;31.88;27.88;99341.72;5044410;28;19948;-38
2022/06/07 12:47:57;;;;;;;;;;;;;;;31.50;28.33;99343.16;5032782;28;20039;-38
2022/06/07 12:50:27;;;;;;;;;;;;;;;31.01;28.71;99338.69;5032160;28;19909;-38
2022/06/07 12:52:53;;;;;;;;;;;;;;;31.17;29.00;99339.53;5032320;28;19920;-38
2022/06/07 12:55:21;;;;;;;;;;;;;;;30.40;29.55;99334.16;5032345;28;20515;-38
2022/06/07 12:57:48;;;;;;;;;;;;;;;30.37;30.02;99343.09;5032016;28;19932;-38
2022/06/07 13:00:16;;;;;;;;;;;;;;;29.90;30.22;99338.88;5032045;28;19916;-38
2022/06/07 13:02:46;;;;;;;;;;;;;;;29.60;31.64;99335.50;5031965;28;20372;-37
2022/06/07 13:05:28;;;;;;;;;;;;;;;29.93;31.94;99332.72;5032890;28;19909;-39
2022/06/07 13:07:55;;;;;;;;;;;;;;;29.73;32.54;99330.88;5033021;28;19978;-37
2022/06/07 13:10:21;;;;;;;;;;;;;;;29.72;32.45;99329.22;5032632;28;20308;-37
2022/06/07 13:12:51;;;;;;;;;;;;;;;29.11;32.66;99329.88;5032343;28;19909;-37
2022/06/07 13:15:21;;;;;;;;;;;;;;;29.26;32.83;99325.75;5032524;28;20012;-37